KLAX/LAX METAR and TAF weather

Enter ICAO airport designator
Station Type Date Time Source
KLAX METAR 2020/01/24 20:53 UTC NOAA

KLAX 242053Z 25008KT 10SM FEW120 SCT160 BKN250 19/12 A2998 RMK AO2 SLP152 T01940122 58018


Station Type Date Time Source
KLAX Decoded METAR 2020/01/24 20:53 UTC NOAA

LOS ANGELES INTERNTL AIRPORT, CA, United States (KLAX) 33-56N 118-23W 46M
Jan 24, 2020 - 03:53 PM EST / 2020.01.24 2053 UTC
Wind: from the WSW (250 degrees) at 9 MPH (8 KT):0
Visibility: 10 mile(s):0
Sky conditions: mostly cloudy
Temperature: 66.9 F (19.4 C)
Dew Point: 54.0 F (12.2 C)
Relative Humidity: 63%
Pressure (altimeter): 29.98 in. Hg (1015 hPa)
Pressure tendency: 0.05 inches (1.8 hPa) lower than three hours ago
ob: KLAX 242053Z 25008KT 10SM FEW120 SCT160 BKN250 19/12 A2998 RMK AO2 SLP152 T01940122 58018
cycle: 21

Station Type Date Time Source
KLAX TAF 2020/01/24 18:48 UTC NOAA

TAF KLAX 241746Z 2418/2524 VRB03KT P6SM FEW100 SCT200
FM242000 26008KT P6SM SCT250
FM250400 VRB03KT P6SM SCT250
FM251200 12003KT 6SM BR SCT005 SCT250
FM252100 26006KT P6SM SCT250

Example: see airport list